sensor_id;sensor_type;location;lat;lon;timestamp;P1;durP1;ratioP1;P2;durP2;ratioP2
36379;SDS011;22411;53.016;18.632;2024-03-06T00:02:07;68.53;;;29.45;;
36379;SDS011;22411;53.016;18.632;2024-03-06T00:04:33;61.03;;;27.92;;
36379;SDS011;22411;53.016;18.632;2024-03-06T00:06:59;61.05;;;28.02;;
36379;SDS011;22411;53.016;18.632;2024-03-06T00:09:25;72.43;;;30.55;;
36379;SDS011;22411;53.016;18.632;2024-03-06T00:11:53;68.25;;;29.00;;
36379;SDS011;22411;53.016;18.632;2024-03-06T00:14:19;72.05;;;31.42;;
36379;SDS011;22411;53.016;18.632;2024-03-06T00:16:47;60.65;;;30.88;;
36379;SDS011;22411;53.016;18.632;2024-03-06T00:19:18;63.17;;;28.83;;
36379;SDS011;22411;53.016;18.632;2024-03-06T00:21:44;65.68;;;30.52;;
36379;SDS011;22411;53.016;18.632;2024-03-06T00:24:11;60.67;;;28.63;;
36379;SDS011;22411;53.016;18.632;2024-03-06T00:26:44;65.38;;;32.45;;
36379;SDS011;22411;53.016;18.632;2024-03-06T00:29:11;68.85;;;31.73;;
36379;SDS011;22411;53.016;18.632;2024-03-06T00:31:37;77.28;;;34.13;;
36379;SDS011;22411;53.016;18.632;2024-03-06T00:34:08;74.90;;;33.70;;
36379;SDS011;22411;53.016;18.632;2024-03-06T00:36:34;62.10;;;30.20;;
36379;SDS011;22411;53.016;18.632;2024-03-06T00:39:00;64.85;;;29.80;;
36379;SDS011;22411;53.016;18.632;2024-03-06T00:41:26;63.67;;;28.40;;
36379;SDS011;22411;53.016;18.632;2024-03-06T00:43:51;62.25;;;29.27;;
36379;SDS011;22411;53.016;18.632;2024-03-06T00:46:17;61.15;;;27.88;;
36379;SDS011;22411;53.016;18.632;2024-03-06T00:48:43;54.33;;;26.25;;
36379;SDS011;22411;53.016;18.632;2024-03-06T00:51:08;55.55;;;25.55;;
36379;SDS011;22411;53.016;18.632;2024-03-06T00:53:34;51.90;;;24.42;;
36379;SDS011;22411;53.016;18.632;2024-03-06T00:56:01;53.30;;;25.77;;
36379;SDS011;22411;53.016;18.632;2024-03-06T00:58:27;45.67;;;22.35;;
36379;SDS011;22411;53.016;18.632;2024-03-06T01:00:53;46.40;;;24.30;;
36379;SDS011;22411;53.016;18.632;2024-03-06T01:03:19;45.90;;;21.77;;
36379;SDS011;22411;53.016;18.632;2024-03-06T01:05:45;46.08;;;24.58;;
36379;SDS011;22411;53.016;18.632;2024-03-06T01:08:11;46.58;;;23.30;;
36379;SDS011;22411;53.016;18.632;2024-03-06T01:10:38;47.63;;;22.73;;
36379;SDS011;22411;53.016;18.632;2024-03-06T01:13:03;46.08;;;22.83;;
36379;SDS011;22411;53.016;18.632;2024-03-06T01:15:30;41.22;;;21.77;;
36379;SDS011;22411;53.016;18.632;2024-03-06T01:17:55;42.28;;;22.17;;
36379;SDS011;22411;53.016;18.632;2024-03-06T01:20:23;38.53;;;21.83;;
36379;SDS011;22411;53.016;18.632;2024-03-06T01:22:48;44.55;;;22.63;;
36379;SDS011;22411;53.016;18.632;2024-03-06T01:25:14;36.13;;;20.27;;
36379;SDS011;22411;53.016;18.632;2024-03-06T01:27:40;45.00;;;22.60;;
36379;SDS011;22411;53.016;18.632;2024-03-06T01:30:06;38.28;;;22.13;;
36379;SDS011;22411;53.016;18.632;2024-03-06T01:32:32;43.65;;;20.75;;
36379;SDS011;22411;53.016;18.632;2024-03-06T01:34:59;36.50;;;20.08;;
36379;SDS011;22411;53.016;18.632;2024-03-06T01:37:24;35.97;;;21.15;;
36379;SDS011;22411;53.016;18.632;2024-03-06T01:39:50;40.15;;;21.67;;
36379;SDS011;22411;53.016;18.632;2024-03-06T01:42:19;38.95;;;19.48;;
36379;SDS011;22411;53.016;18.632;2024-03-06T01:44:45;35.75;;;19.95;;
36379;SDS011;22411;53.016;18.632;2024-03-06T01:47:10;39.22;;;20.13;;
36379;SDS011;22411;53.016;18.632;2024-03-06T01:49:36;35.53;;;19.45;;
36379;SDS011;22411;53.016;18.632;2024-03-06T01:52:02;32.22;;;20.25;;
36379;SDS011;22411;53.016;18.632;2024-03-06T01:54:29;36.00;;;20.55;;
36379;SDS011;22411;53.016;18.632;2024-03-06T01:56:56;36.17;;;20.70;;
36379;SDS011;22411;53.016;18.632;2024-03-06T01:59:25;37.03;;;20.05;;
36379;SDS011;22411;53.016;18.632;2024-03-06T02:01:52;33.05;;;18.98;;
36379;SDS011;22411;53.016;18.632;2024-03-06T02:04:18;33.75;;;19.05;;
36379;SDS011;22411;53.016;18.632;2024-03-06T02:06:45;35.67;;;19.88;;
36379;SDS011;22411;53.016;18.632;2024-03-06T02:09:12;31.92;;;19.13;;
36379;SDS011;22411;53.016;18.632;2024-03-06T02:11:39;31.98;;;19.05;;
36379;SDS011;22411;53.016;18.632;2024-03-06T02:14:05;34.97;;;20.00;;
36379;SDS011;22411;53.016;18.632;2024-03-06T02:16:35;39.13;;;20.00;;
36379;SDS011;22411;53.016;18.632;2024-03-06T02:19:01;32.33;;;18.33;;
36379;SDS011;22411;53.016;18.632;2024-03-06T02:21:28;31.83;;;18.70;;
36379;SDS011;22411;53.016;18.632;2024-03-06T02:23:54;38.72;;;19.23;;
36379;SDS011;22411;53.016;18.632;2024-03-06T02:26:20;30.05;;;17.52;;
36379;SDS011;22411;53.016;18.632;2024-03-06T02:28:53;34.35;;;17.67;;
36379;SDS011;22411;53.016;18.632;2024-03-06T02:31:20;36.03;;;19.75;;
36379;SDS011;22411;53.016;18.632;2024-03-06T02:33:47;34.63;;;18.95;;
36379;SDS011;22411;53.016;18.632;2024-03-06T02:36:14;35.90;;;18.25;;
36379;SDS011;22411;53.016;18.632;2024-03-06T02:38:42;37.22;;;20.30;;
36379;SDS011;22411;53.016;18.632;2024-03-06T02:41:08;33.03;;;18.83;;
36379;SDS011;22411;53.016;18.632;2024-03-06T02:43:34;36.75;;;18.75;;
36379;SDS011;22411;53.016;18.632;2024-03-06T02:46:00;34.20;;;18.67;;
36379;SDS011;22411;53.016;18.632;2024-03-06T02:48:26;32.65;;;17.80;;
36379;SDS011;22411;53.016;18.632;2024-03-06T02:50:52;29.38;;;17.83;;
36379;SDS011;22411;53.016;18.632;2024-03-06T02:53:18;38.33;;;20.75;;
36379;SDS011;22411;53.016;18.632;2024-03-06T02:55:43;35.67;;;18.27;;
36379;SDS011;22411;53.016;18.632;2024-03-06T02:58:09;33.88;;;18.33;;
36379;SDS011;22411;53.016;18.632;2024-03-06T03:00:35;35.60;;;19.45;;
36379;SDS011;22411;53.016;18.632;2024-03-06T03:03:01;31.67;;;16.25;;
36379;SDS011;22411;53.016;18.632;2024-03-06T03:05:27;35.85;;;17.85;;
36379;SDS011;22411;53.016;18.632;2024-03-06T03:07:53;39.33;;;18.63;;
36379;SDS011;22411;53.016;18.632;2024-03-06T03:10:18;44.15;;;19.60;;
36379;SDS011;22411;53.016;18.632;2024-03-06T03:12:44;38.15;;;19.33;;
36379;SDS011;22411;53.016;18.632;2024-03-06T03:15:10;40.92;;;18.02;;
36379;SDS011;22411;53.016;18.632;2024-03-06T03:17:36;47.47;;;18.27;;
36379;SDS011;22411;53.016;18.632;2024-03-06T03:20:02;37.22;;;19.27;;
36379;SDS011;22411;53.016;18.632;2024-03-06T03:22:38;39.63;;;19.30;;
36379;SDS011;22411;53.016;18.632;2024-03-06T03:25:07;43.70;;;19.52;;
36379;SDS011;22411;53.016;18.632;2024-03-06T03:27:34;47.92;;;21.90;;
36379;SDS011;22411;53.016;18.632;2024-03-06T03:29:59;42.15;;;18.63;;
36379;SDS011;22411;53.016;18.632;2024-03-06T03:32:26;46.72;;;21.48;;
36379;SDS011;22411;53.016;18.632;2024-03-06T03:34:51;43.85;;;22.25;;
36379;SDS011;22411;53.016;18.632;2024-03-06T03:37:17;49.10;;;20.70;;
36379;SDS011;22411;53.016;18.632;2024-03-06T03:39:45;46.47;;;20.45;;
36379;SDS011;22411;53.016;18.632;2024-03-06T03:42:11;51.72;;;21.52;;
36379;SDS011;22411;53.016;18.632;2024-03-06T03:44:37;54.75;;;23.95;;
36379;SDS011;22411;53.016;18.632;2024-03-06T03:47:03;49.30;;;23.25;;
36379;SDS011;22411;53.016;18.632;2024-03-06T03:49:28;46.70;;;24.08;;
36379;SDS011;22411;53.016;18.632;2024-03-06T03:51:54;44.67;;;24.00;;
36379;SDS011;22411;53.016;18.632;2024-03-06T03:54:20;49.67;;;24.95;;
36379;SDS011;22411;53.016;18.632;2024-03-06T03:56:46;49.50;;;24.95;;
36379;SDS011;22411;53.016;18.632;2024-03-06T03:59:11;46.33;;;24.40;;
36379;SDS011;22411;53.016;18.632;2024-03-06T04:01:37;50.78;;;27.02;;
36379;SDS011;22411;53.016;18.632;2024-03-06T04:04:03;60.20;;;27.83;;
36379;SDS011;22411;53.016;18.632;2024-03-06T04:06:29;56.35;;;28.40;;
36379;SDS011;22411;53.016;18.632;2024-03-06T04:08:54;53.10;;;26.95;;
36379;SDS011;22411;53.016;18.632;2024-03-06T04:11:20;54.50;;;28.33;;
36379;SDS011;22411;53.016;18.632;2024-03-06T04:13:45;59.83;;;29.98;;
36379;SDS011;22411;53.016;18.632;2024-03-06T04:16:15;52.75;;;28.20;;
36379;SDS011;22411;53.016;18.632;2024-03-06T04:18:42;62.78;;;29.00;;
36379;SDS011;22411;53.016;18.632;2024-03-06T04:21:08;54.97;;;30.48;;
36379;SDS011;22411;53.016;18.632;2024-03-06T04:23:35;57.85;;;28.60;;
36379;SDS011;22411;53.016;18.632;2024-03-06T04:26:02;57.45;;;28.65;;
36379;SDS011;22411;53.016;18.632;2024-03-06T04:28:28;57.25;;;29.92;;
36379;SDS011;22411;53.016;18.632;2024-03-06T04:30:55;55.83;;;29.52;;
36379;SDS011;22411;53.016;18.632;2024-03-06T04:33:21;58.35;;;30.35;;
36379;SDS011;22411;53.016;18.632;2024-03-06T04:35:47;61.00;;;31.70;;
36379;SDS011;22411;53.016;18.632;2024-03-06T04:38:12;61.15;;;30.60;;
36379;SDS011;22411;53.016;18.632;2024-03-06T04:40:39;60.90;;;31.55;;
36379;SDS011;22411;53.016;18.632;2024-03-06T04:43:05;64.60;;;32.58;;
36379;SDS011;22411;53.016;18.632;2024-03-06T04:45:32;70.50;;;35.20;;
36379;SDS011;22411;53.016;18.632;2024-03-06T04:47:57;61.97;;;33.85;;
36379;SDS011;22411;53.016;18.632;2024-03-06T04:50:24;62.72;;;33.03;;
36379;SDS011;22411;53.016;18.632;2024-03-06T04:52:49;64.82;;;32.03;;
36379;SDS011;22411;53.016;18.632;2024-03-06T04:55:15;67.78;;;33.33;;
36379;SDS011;22411;53.016;18.632;2024-03-06T04:57:45;69.45;;;32.90;;
36379;SDS011;22411;53.016;18.632;2024-03-06T05:00:11;71.85;;;32.55;;
36379;SDS011;22411;53.016;18.632;2024-03-06T05:02:38;66.82;;;35.50;;
36379;SDS011;22411;53.016;18.632;2024-03-06T05:05:04;74.78;;;36.90;;
36379;SDS011;22411;53.016;18.632;2024-03-06T05:07:30;76.07;;;33.10;;
36379;SDS011;22411;53.016;18.632;2024-03-06T05:09:58;72.78;;;35.55;;
36379;SDS011;22411;53.016;18.632;2024-03-06T05:12:27;72.03;;;37.15;;
36379;SDS011;22411;53.016;18.632;2024-03-06T05:14:53;71.25;;;38.00;;
36379;SDS011;22411;53.016;18.632;2024-03-06T05:17:20;73.80;;;35.35;;
36379;SDS011;22411;53.016;18.632;2024-03-06T05:19:46;69.75;;;36.42;;
36379;SDS011;22411;53.016;18.632;2024-03-06T05:22:14;70.47;;;36.83;;
36379;SDS011;22411;53.016;18.632;2024-03-06T05:24:42;70.95;;;35.65;;
36379;SDS011;22411;53.016;18.632;2024-03-06T05:27:08;68.85;;;36.72;;
36379;SDS011;22411;53.016;18.632;2024-03-06T05:29:44;76.65;;;37.00;;
36379;SDS011;22411;53.016;18.632;2024-03-06T05:32:10;73.32;;;37.67;;
36379;SDS011;22411;53.016;18.632;2024-03-06T05:34:36;73.20;;;36.47;;
36379;SDS011;22411;53.016;18.632;2024-03-06T05:37:01;79.00;;;39.47;;
36379;SDS011;22411;53.016;18.632;2024-03-06T05:39:30;70.68;;;39.03;;
36379;SDS011;22411;53.016;18.632;2024-03-06T05:41:59;79.35;;;39.88;;
36379;SDS011;22411;53.016;18.632;2024-03-06T05:44:32;70.47;;;38.95;;
36379;SDS011;22411;53.016;18.632;2024-03-06T05:47:01;73.85;;;37.90;;
36379;SDS011;22411;53.016;18.632;2024-03-06T05:49:28;64.78;;;36.88;;
36379;SDS011;22411;53.016;18.632;2024-03-06T05:51:54;71.47;;;39.10;;
36379;SDS011;22411;53.016;18.632;2024-03-06T05:54:21;76.20;;;36.90;;
36379;SDS011;22411;53.016;18.632;2024-03-06T05:56:47;81.45;;;38.60;;
36379;SDS011;22411;53.016;18.632;2024-03-06T05:59:15;78.63;;;39.42;;
36379;SDS011;22411;53.016;18.632;2024-03-06T06:01:41;69.80;;;35.80;;
36379;SDS011;22411;53.016;18.632;2024-03-06T06:04:08;70.90;;;35.80;;
36379;SDS011;22411;53.016;18.632;2024-03-06T06:06:37;79.03;;;38.22;;
36379;SDS011;22411;53.016;18.632;2024-03-06T06:09:03;63.58;;;35.38;;
36379;SDS011;22411;53.016;18.632;2024-03-06T06:11:31;70.32;;;35.13;;
36379;SDS011;22411;53.016;18.632;2024-03-06T06:13:59;61.65;;;36.13;;
36379;SDS011;22411;53.016;18.632;2024-03-06T06:16:25;66.43;;;35.67;;
36379;SDS011;22411;53.016;18.632;2024-03-06T06:18:51;67.55;;;34.95;;
36379;SDS011;22411;53.016;18.632;2024-03-06T06:21:16;72.47;;;35.97;;
36379;SDS011;22411;53.016;18.632;2024-03-06T06:23:42;69.60;;;35.53;;
36379;SDS011;22411;53.016;18.632;2024-03-06T06:26:08;61.10;;;31.55;;
36379;SDS011;22411;53.016;18.632;2024-03-06T06:28:36;59.92;;;32.88;;
36379;SDS011;22411;53.016;18.632;2024-03-06T06:31:02;62.35;;;33.47;;
36379;SDS011;22411;53.016;18.632;2024-03-06T06:33:29;61.55;;;32.85;;
36379;SDS011;22411;53.016;18.632;2024-03-06T06:35:55;65.90;;;34.78;;
36379;SDS011;22411;53.016;18.632;2024-03-06T06:38:21;56.80;;;31.90;;
36379;SDS011;22411;53.016;18.632;2024-03-06T06:40:47;59.75;;;31.02;;
36379;SDS011;22411;53.016;18.632;2024-03-06T06:43:13;59.63;;;30.95;;
36379;SDS011;22411;53.016;18.632;2024-03-06T06:45:39;56.95;;;28.58;;
36379;SDS011;22411;53.016;18.632;2024-03-06T06:48:05;50.33;;;26.98;;
36379;SDS011;22411;53.016;18.632;2024-03-06T06:50:31;54.45;;;27.08;;
36379;SDS011;22411;53.016;18.632;2024-03-06T06:52:59;45.60;;;26.52;;
36379;SDS011;22411;53.016;18.632;2024-03-06T06:55:25;52.45;;;27.85;;
36379;SDS011;22411;53.016;18.632;2024-03-06T06:57:51;47.47;;;25.05;;
36379;SDS011;22411;53.016;18.632;2024-03-06T07:00:17;50.30;;;26.35;;
36379;SDS011;22411;53.016;18.632;2024-03-06T07:02:44;53.45;;;26.77;;
36379;SDS011;22411;53.016;18.632;2024-03-06T07:05:10;48.25;;;25.05;;
36379;SDS011;22411;53.016;18.632;2024-03-06T07:07:36;46.40;;;23.88;;
36379;SDS011;22411;53.016;18.632;2024-03-06T07:10:04;45.05;;;24.65;;
36379;SDS011;22411;53.016;18.632;2024-03-06T07:12:30;48.42;;;23.23;;
36379;SDS011;22411;53.016;18.632;2024-03-06T07:14:56;40.22;;;23.15;;
36379;SDS011;22411;53.016;18.632;2024-03-06T07:17:23;45.05;;;23.92;;
36379;SDS011;22411;53.016;18.632;2024-03-06T07:19:49;38.88;;;21.00;;
36379;SDS011;22411;53.016;18.632;2024-03-06T07:22:14;45.25;;;23.48;;
36379;SDS011;22411;53.016;18.632;2024-03-06T07:24:40;37.58;;;21.65;;
36379;SDS011;22411;53.016;18.632;2024-03-06T07:27:07;43.58;;;22.25;;
36379;SDS011;22411;53.016;18.632;2024-03-06T07:29:36;37.45;;;21.95;;
36379;SDS011;22411;53.016;18.632;2024-03-06T07:32:02;41.92;;;21.10;;
36379;SDS011;22411;53.016;18.632;2024-03-06T07:34:30;40.15;;;21.42;;
36379;SDS011;22411;53.016;18.632;2024-03-06T07:36:56;32.38;;;18.63;;
36379;SDS011;22411;53.016;18.632;2024-03-06T07:39:24;31.55;;;19.48;;
36379;SDS011;22411;53.016;18.632;2024-03-06T07:41:51;35.00;;;19.23;;
36379;SDS011;22411;53.016;18.632;2024-03-06T07:44:17;34.35;;;19.83;;
36379;SDS011;22411;53.016;18.632;2024-03-06T07:46:43;38.35;;;18.58;;
36379;SDS011;22411;53.016;18.632;2024-03-06T07:49:08;34.17;;;19.75;;
36379;SDS011;22411;53.016;18.632;2024-03-06T07:51:34;30.27;;;19.25;;
36379;SDS011;22411;53.016;18.632;2024-03-06T07:54:01;42.28;;;19.30;;
36379;SDS011;22411;53.016;18.632;2024-03-06T07:56:29;35.58;;;19.35;;
36379;SDS011;22411;53.016;18.632;2024-03-06T07:58:54;29.58;;;17.92;;
36379;SDS011;22411;53.016;18.632;2024-03-06T08:01:21;29.60;;;16.50;;
36379;SDS011;22411;53.016;18.632;2024-03-06T08:03:50;32.08;;;17.30;;
36379;SDS011;22411;53.016;18.632;2024-03-06T08:06:16;30.50;;;17.55;;
36379;SDS011;22411;53.016;18.632;2024-03-06T08:08:42;27.90;;;16.60;;
36379;SDS011;22411;53.016;18.632;2024-03-06T08:11:10;31.38;;;17.92;;
36379;SDS011;22411;53.016;18.632;2024-03-06T08:13:36;32.08;;;19.00;;
36379;SDS011;22411;53.016;18.632;2024-03-06T08:16:03;81.35;;;52.08;;
36379;SDS011;22411;53.016;18.632;2024-03-06T08:18:30;57.17;;;40.15;;
36379;SDS011;22411;53.016;18.632;2024-03-06T08:20:56;35.55;;;22.55;;
36379;SDS011;22411;53.016;18.632;2024-03-06T08:23:22;30.55;;;20.80;;
36379;SDS011;22411;53.016;18.632;2024-03-06T08:25:48;67.80;;;40.85;;
36379;SDS011;22411;53.016;18.632;2024-03-06T08:28:14;112.65;;;68.38;;
36379;SDS011;22411;53.016;18.632;2024-03-06T08:30:41;51.83;;;33.47;;
36379;SDS011;22411;53.016;18.632;2024-03-06T08:33:07;44.53;;;26.92;;
36379;SDS011;22411;53.016;18.632;2024-03-06T08:35:32;34.83;;;21.80;;
36379;SDS011;22411;53.016;18.632;2024-03-06T08:37:59;27.23;;;19.88;;
36379;SDS011;22411;53.016;18.632;2024-03-06T08:40:25;30.25;;;21.20;;
36379;SDS011;22411;53.016;18.632;2024-03-06T08:42:53;28.10;;;19.88;;
36379;SDS011;22411;53.016;18.632;2024-03-06T08:45:18;25.92;;;18.42;;
36379;SDS011;22411;53.016;18.632;2024-03-06T08:47:44;26.90;;;17.75;;
36379;SDS011;22411;53.016;18.632;2024-03-06T08:50:12;25.50;;;16.05;;
36379;SDS011;22411;53.016;18.632;2024-03-06T08:52:38;24.55;;;17.13;;
36379;SDS011;22411;53.016;18.632;2024-03-06T08:55:04;22.60;;;15.20;;
36379;SDS011;22411;53.016;18.632;2024-03-06T08:57:33;23.52;;;16.33;;
36379;SDS011;22411;53.016;18.632;2024-03-06T09:00:00;23.02;;;17.35;;
36379;SDS011;22411;53.016;18.632;2024-03-06T09:02:26;31.17;;;20.27;;
36379;SDS011;22411;53.016;18.632;2024-03-06T09:04:52;29.65;;;23.10;;
36379;SDS011;22411;53.016;18.632;2024-03-06T09:07:18;27.35;;;19.92;;
36379;SDS011;22411;53.016;18.632;2024-03-06T09:09:45;80.43;;;53.65;;
36379;SDS011;22411;53.016;18.632;2024-03-06T09:12:11;62.05;;;43.42;;
36379;SDS011;22411;53.016;18.632;2024-03-06T09:14:38;36.15;;;25.77;;
36379;SDS011;22411;53.016;18.632;2024-03-06T09:17:04;39.78;;;30.35;;
36379;SDS011;22411;53.016;18.632;2024-03-06T09:19:31;26.73;;;20.83;;
36379;SDS011;22411;53.016;18.632;2024-03-06T09:21:58;27.73;;;22.30;;
36379;SDS011;22411;53.016;18.632;2024-03-06T09:24:24;26.52;;;18.10;;
36379;SDS011;22411;53.016;18.632;2024-03-06T09:26:50;25.50;;;18.05;;
36379;SDS011;22411;53.016;18.632;2024-03-06T09:29:16;30.92;;;17.02;;
36379;SDS011;22411;53.016;18.632;2024-03-06T09:31:43;23.67;;;15.32;;
36379;SDS011;22411;53.016;18.632;2024-03-06T09:34:08;23.20;;;14.57;;
36379;SDS011;22411;53.016;18.632;2024-03-06T09:36:41;26.08;;;15.32;;
36379;SDS011;22411;53.016;18.632;2024-03-06T09:39:13;27.13;;;17.00;;
36379;SDS011;22411;53.016;18.632;2024-03-06T09:41:46;36.45;;;22.67;;
36379;SDS011;22411;53.016;18.632;2024-03-06T09:44:12;33.47;;;20.77;;
36379;SDS011;22411;53.016;18.632;2024-03-06T09:46:45;38.42;;;27.63;;
36379;SDS011;22411;53.016;18.632;2024-03-06T09:49:13;43.38;;;34.88;;
36379;SDS011;22411;53.016;18.632;2024-03-06T09:51:43;62.65;;;46.83;;
36379;SDS011;22411;53.016;18.632;2024-03-06T09:54:15;46.30;;;32.03;;
36379;SDS011;22411;53.016;18.632;2024-03-06T09:56:45;27.38;;;22.52;;
36379;SDS011;22411;53.016;18.632;2024-03-06T09:59:12;30.00;;;22.00;;
36379;SDS011;22411;53.016;18.632;2024-03-06T10:01:50;31.92;;;22.23;;
36379;SDS011;22411;53.016;18.632;2024-03-06T10:06:45;86.18;;;49.38;;
36379;SDS011;22411;53.016;18.632;2024-03-06T10:09:11;47.90;;;31.55;;
36379;SDS011;22411;53.016;18.632;2024-03-06T10:11:40;99.00;;;56.20;;
36379;SDS011;22411;53.016;18.632;2024-03-06T10:14:08;91.05;;;49.40;;
36379;SDS011;22411;53.016;18.632;2024-03-06T10:16:35;76.95;;;43.47;;
36379;SDS011;22411;53.016;18.632;2024-03-06T10:19:19;32.22;;;18.92;;
36379;SDS011;22411;53.016;18.632;2024-03-06T10:21:48;102.10;;;60.00;;
36379;SDS011;22411;53.016;18.632;2024-03-06T10:24:26;64.88;;;37.08;;
36379;SDS011;22411;53.016;18.632;2024-03-06T10:26:57;55.35;;;36.75;;
36379;SDS011;22411;53.016;18.632;2024-03-06T10:29:24;40.28;;;28.63;;
36379;SDS011;22411;53.016;18.632;2024-03-06T10:31:53;30.05;;;18.80;;
36379;SDS011;22411;53.016;18.632;2024-03-06T10:34:20;31.17;;;25.83;;
36379;SDS011;22411;53.016;18.632;2024-03-06T10:36:53;28.25;;;24.13;;
36379;SDS011;22411;53.016;18.632;2024-03-06T10:39:20;28.55;;;24.33;;
36379;SDS011;22411;53.016;18.632;2024-03-06T10:41:51;26.90;;;20.05;;
36379;SDS011;22411;53.016;18.632;2024-03-06T10:44:18;35.42;;;25.13;;
36379;SDS011;22411;53.016;18.632;2024-03-06T10:46:47;38.53;;;29.63;;
36379;SDS011;22411;53.016;18.632;2024-03-06T10:49:22;36.40;;;25.23;;
36379;SDS011;22411;53.016;18.632;2024-03-06T10:51:50;25.23;;;21.02;;
36379;SDS011;22411;53.016;18.632;2024-03-06T10:54:17;34.30;;;26.52;;
36379;SDS011;22411;53.016;18.632;2024-03-06T10:56:44;28.58;;;18.30;;
36379;SDS011;22411;53.016;18.632;2024-03-06T10:59:11;19.13;;;13.43;;
36379;SDS011;22411;53.016;18.632;2024-03-06T11:01:39;40.78;;;31.58;;
36379;SDS011;22411;53.016;18.632;2024-03-06T11:04:06;31.15;;;26.10;;
36379;SDS011;22411;53.016;18.632;2024-03-06T11:06:33;37.25;;;30.55;;
36379;SDS011;22411;53.016;18.632;2024-03-06T11:09:00;27.25;;;18.00;;
36379;SDS011;22411;53.016;18.632;2024-03-06T11:11:27;29.33;;;24.10;;
36379;SDS011;22411;53.016;18.632;2024-03-06T11:13:59;35.80;;;30.50;;
36379;SDS011;22411;53.016;18.632;2024-03-06T11:16:32;26.02;;;20.23;;
36379;SDS011;22411;53.016;18.632;2024-03-06T11:19:25;39.15;;;32.85;;
36379;SDS011;22411;53.016;18.632;2024-03-06T11:21:51;36.00;;;28.73;;
36379;SDS011;22411;53.016;18.632;2024-03-06T11:24:18;34.55;;;30.63;;
36379;SDS011;22411;53.016;18.632;2024-03-06T11:26:48;38.92;;;33.20;;
36379;SDS011;22411;53.016;18.632;2024-03-06T11:29:22;37.05;;;30.27;;
36379;SDS011;22411;53.016;18.632;2024-03-06T11:32:04;37.28;;;25.63;;
36379;SDS011;22411;53.016;18.632;2024-03-06T11:34:35;35.25;;;27.60;;
36379;SDS011;22411;53.016;18.632;2024-03-06T11:37:08;37.40;;;29.42;;
36379;SDS011;22411;53.016;18.632;2024-03-06T11:39:37;27.60;;;20.60;;
36379;SDS011;22411;53.016;18.632;2024-03-06T11:42:06;29.65;;;20.42;;
36379;SDS011;22411;53.016;18.632;2024-03-06T11:44:34;33.67;;;22.27;;
36379;SDS011;22411;53.016;18.632;2024-03-06T11:47:05;32.80;;;25.50;;
36379;SDS011;22411;53.016;18.632;2024-03-06T11:49:34;24.83;;;18.83;;
36379;SDS011;22411;53.016;18.632;2024-03-06T11:54:30;46.05;;;26.15;;
36379;SDS011;22411;53.016;18.632;2024-03-06T11:56:57;31.40;;;21.05;;
36379;SDS011;22411;53.016;18.632;2024-03-06T11:59:24;25.70;;;18.30;;
36379;SDS011;22411;53.016;18.632;2024-03-06T12:02:01;27.50;;;19.98;;
36379;SDS011;22411;53.016;18.632;2024-03-06T12:04:31;19.17;;;13.70;;
36379;SDS011;22411;53.016;18.632;2024-03-06T12:07:02;20.38;;;12.68;;
36379;SDS011;22411;53.016;18.632;2024-03-06T12:09:31;20.73;;;14.00;;
36379;SDS011;22411;53.016;18.632;2024-03-06T12:11:58;18.65;;;12.30;;
36379;SDS011;22411;53.016;18.632;2024-03-06T12:14:25;19.38;;;12.98;;
36379;SDS011;22411;53.016;18.632;2024-03-06T12:19:27;15.52;;;10.07;;
36379;SDS011;22411;53.016;18.632;2024-03-06T12:21:53;18.58;;;11.20;;
36379;SDS011;22411;53.016;18.632;2024-03-06T12:24:19;25.83;;;15.07;;
36379;SDS011;22411;53.016;18.632;2024-03-06T12:26:46;30.15;;;15.93;;
36379;SDS011;22411;53.016;18.632;2024-03-06T12:29:17;18.33;;;11.57;;
36379;SDS011;22411;53.016;18.632;2024-03-06T12:31:46;18.38;;;11.38;;
36379;SDS011;22411;53.016;18.632;2024-03-06T12:34:15;17.00;;;11.95;;
36379;SDS011;22411;53.016;18.632;2024-03-06T12:36:44;16.35;;;9.23;;
36379;SDS011;22411;53.016;18.632;2024-03-06T12:39:10;16.33;;;9.82;;
36379;SDS011;22411;53.016;18.632;2024-03-06T12:41:41;14.93;;;9.48;;
36379;SDS011;22411;53.016;18.632;2024-03-06T12:44:07;21.63;;;11.57;;
36379;SDS011;22411;53.016;18.632;2024-03-06T12:46:33;18.00;;;10.45;;
36379;SDS011;22411;53.016;18.632;2024-03-06T12:48:59;17.52;;;11.02;;
36379;SDS011;22411;53.016;18.632;2024-03-06T12:51:25;14.70;;;10.30;;
36379;SDS011;22411;53.016;18.632;2024-03-06T12:53:51;13.50;;;9.10;;
36379;SDS011;22411;53.016;18.632;2024-03-06T12:56:18;12.32;;;9.18;;
36379;SDS011;22411;53.016;18.632;2024-03-06T12:58:44;13.70;;;9.38;;
36379;SDS011;22411;53.016;18.632;2024-03-06T13:01:10;13.32;;;8.23;;
36379;SDS011;22411;53.016;18.632;2024-03-06T13:03:36;12.27;;;8.35;;
36379;SDS011;22411;53.016;18.632;2024-03-06T13:06:03;13.90;;;7.28;;
36379;SDS011;22411;53.016;18.632;2024-03-06T13:08:30;15.50;;;8.00;;
36379;SDS011;22411;53.016;18.632;2024-03-06T13:10:55;14.98;;;7.07;;
36379;SDS011;22411;53.016;18.632;2024-03-06T13:13:21;11.63;;;7.45;;
36379;SDS011;22411;53.016;18.632;2024-03-06T13:15:49;10.48;;;7.50;;
36379;SDS011;22411;53.016;18.632;2024-03-06T13:18:16;11.10;;;7.13;;
36379;SDS011;22411;53.016;18.632;2024-03-06T13:20:42;10.80;;;7.07;;
36379;SDS011;22411;53.016;18.632;2024-03-06T13:23:09;88.90;;;45.50;;
36379;SDS011;22411;53.016;18.632;2024-03-06T13:25:35;58.70;;;30.58;;
36379;SDS011;22411;53.016;18.632;2024-03-06T13:28:01;62.55;;;34.53;;
36379;SDS011;22411;53.016;18.632;2024-03-06T13:30:28;53.63;;;30.27;;
36379;SDS011;22411;53.016;18.632;2024-03-06T13:32:54;25.77;;;16.27;;
36379;SDS011;22411;53.016;18.632;2024-03-06T13:35:19;16.38;;;10.40;;
36379;SDS011;22411;53.016;18.632;2024-03-06T13:37:45;13.52;;;10.45;;
36379;SDS011;22411;53.016;18.632;2024-03-06T13:40:11;11.27;;;9.00;;
36379;SDS011;22411;53.016;18.632;2024-03-06T13:42:41;9.25;;;5.97;;
36379;SDS011;22411;53.016;18.632;2024-03-06T13:45:08;14.93;;;7.47;;
36379;SDS011;22411;53.016;18.632;2024-03-06T13:47:40;10.43;;;6.03;;
36379;SDS011;22411;53.016;18.632;2024-03-06T13:50:10;14.23;;;8.88;;
36379;SDS011;22411;53.016;18.632;2024-03-06T13:52:38;40.05;;;20.73;;
36379;SDS011;22411;53.016;18.632;2024-03-06T13:55:04;62.78;;;30.63;;
36379;SDS011;22411;53.016;18.632;2024-03-06T13:57:33;49.78;;;22.70;;
36379;SDS011;22411;53.016;18.632;2024-03-06T14:00:04;39.83;;;19.85;;
36379;SDS011;22411;53.016;18.632;2024-03-06T14:04:57;16.90;;;10.13;;
36379;SDS011;22411;53.016;18.632;2024-03-06T14:07:23;8.43;;;6.93;;
36379;SDS011;22411;53.016;18.632;2024-03-06T14:09:52;8.05;;;5.88;;
36379;SDS011;22411;53.016;18.632;2024-03-06T14:12:19;8.45;;;4.93;;
36379;SDS011;22411;53.016;18.632;2024-03-06T14:14:48;10.00;;;4.93;;
36379;SDS011;22411;53.016;18.632;2024-03-06T14:17:13;7.55;;;4.90;;
36379;SDS011;22411;53.016;18.632;2024-03-06T14:19:39;7.95;;;4.40;;
36379;SDS011;22411;53.016;18.632;2024-03-06T14:22:08;5.60;;;3.75;;